createdAt,value
2017-12-25T00:01:50.371Z,1.33
2017-12-25T00:04:17.851Z,1.60
2017-12-25T00:06:46.317Z,1.70
2017-12-25T00:09:13.776Z,1.20
2017-12-25T00:11:41.243Z,1.40
2017-12-25T00:14:08.687Z,1.20
2017-12-25T00:16:36.140Z,1.17
2017-12-25T00:19:03.584Z,1.00
2017-12-25T00:21:31.039Z,1.17
2017-12-25T00:23:58.503Z,1.87
2017-12-25T00:26:26.012Z,1.20
2017-12-25T00:28:53.470Z,1.67
2017-12-25T00:31:20.914Z,1.10
2017-12-25T00:33:48.415Z,0.80
2017-12-25T00:36:15.880Z,1.20
2017-12-25T00:38:43.351Z,1.17
2017-12-25T00:41:10.815Z,0.80
2017-12-25T00:43:38.278Z,1.30
2017-12-25T00:46:05.736Z,1.20
2017-12-25T00:48:33.217Z,0.70
2017-12-25T00:51:00.664Z,0.87
2017-12-25T00:53:28.129Z,0.83
2017-12-25T00:55:55.577Z,1.10
2017-12-25T00:58:23.114Z,1.33
2017-12-25T01:00:50.572Z,0.97
2017-12-25T01:03:18.027Z,1.00
2017-12-25T01:05:45.484Z,0.93
2017-12-25T01:08:12.934Z,1.00
2017-12-25T01:10:40.402Z,0.67
2017-12-25T01:13:07.862Z,0.80
2017-12-25T01:15:36.214Z,1.20
2017-12-25T01:18:03.671Z,1.80
2017-12-25T01:20:31.137Z,1.57
2017-12-25T01:22:58.595Z,1.03
2017-12-25T01:25:26.078Z,0.70
2017-12-25T01:27:53.583Z,0.97
2017-12-25T01:30:21.046Z,0.80
2017-12-25T01:32:48.635Z,0.77
2017-12-25T01:35:16.108Z,0.80
2017-12-25T01:37:43.555Z,1.07
2017-12-25T01:40:11.016Z,1.20
2017-12-25T01:42:38.476Z,0.87
2017-12-25T01:45:05.953Z,1.17
2017-12-25T01:47:33.414Z,1.10
2017-12-25T01:50:00.876Z,1.00
2017-12-25T01:52:28.354Z,0.60
2017-12-25T01:54:55.799Z,0.80
2017-12-25T01:57:27.858Z,0.73
2017-12-25T02:02:52.906Z,0.80
2017-12-25T02:05:35.734Z,2.23
2017-12-25T02:08:05.895Z,2.00
2017-12-25T02:10:33.437Z,0.80
2017-12-25T02:13:01.002Z,0.70
2017-12-25T02:15:28.506Z,1.10
2017-12-25T02:17:55.953Z,1.43
2017-12-25T02:20:23.405Z,1.07
2017-12-25T02:22:50.849Z,1.00
2017-12-25T02:25:18.307Z,1.20
2017-12-25T02:27:45.758Z,1.60
2017-12-25T02:30:13.237Z,1.30
2017-12-25T02:32:40.740Z,0.80
2017-12-25T02:35:08.303Z,1.30
2017-12-25T02:37:35.922Z,2.40
2017-12-25T02:40:03.932Z,0.80
2017-12-25T02:42:31.401Z,1.13
2017-12-25T02:44:58.872Z,1.17
2017-12-25T02:47:26.312Z,0.80
2017-12-25T02:49:53.771Z,1.10
2017-12-25T02:52:21.274Z,1.00
2017-12-25T02:54:48.826Z,1.00
2017-12-25T02:57:16.306Z,0.90
2017-12-25T02:59:43.761Z,0.67
2017-12-25T03:02:11.222Z,1.10
2017-12-25T03:04:38.672Z,1.37
2017-12-25T03:07:06.138Z,2.57
2017-12-25T03:09:33.599Z,1.23
2017-12-25T03:12:01.069Z,0.83
2017-12-25T03:14:28.551Z,0.70
2017-12-25T03:16:56.004Z,0.87
2017-12-25T03:19:24.756Z,0.67
2017-12-25T03:21:52.265Z,0.80
2017-12-25T03:24:19.707Z,1.00
2017-12-25T03:26:47.173Z,0.67
2017-12-25T03:29:14.714Z,0.90
2017-12-25T03:31:42.147Z,1.00
2017-12-25T03:34:09.604Z,0.80
2017-12-25T03:36:37.070Z,1.87
2017-12-25T03:39:05.295Z,1.73
2017-12-25T03:41:32.818Z,1.17
2017-12-25T03:44:00.296Z,1.00
2017-12-25T03:46:27.763Z,1.13
2017-12-25T03:48:55.216Z,0.80
2017-12-25T03:51:22.674Z,0.90
2017-12-25T03:53:50.170Z,1.30
2017-12-25T03:56:17.642Z,1.10
2017-12-25T03:58:45.085Z,1.80
2017-12-25T04:01:12.547Z,1.00
2017-12-25T04:03:40.037Z,1.67
2017-12-25T04:06:07.484Z,1.20
2017-12-25T04:08:34.947Z,1.43
2017-12-25T04:11:02.420Z,0.90
2017-12-25T04:13:29.880Z,1.40
2017-12-25T04:15:57.329Z,1.00
2017-12-25T04:18:24.792Z,0.80
2017-12-25T04:20:56.494Z,1.10
2017-12-25T04:23:23.972Z,1.10
2017-12-25T04:25:51.410Z,0.90
2017-12-25T04:28:18.873Z,0.97
2017-12-25T04:30:46.443Z,1.00
2017-12-25T04:33:13.890Z,0.97
2017-12-25T04:35:41.354Z,1.10
2017-12-25T04:38:08.806Z,0.93
2017-12-25T04:40:36.265Z,1.33
2017-12-25T04:43:03.729Z,1.10
2017-12-25T04:45:31.196Z,1.20
2017-12-25T04:47:58.719Z,1.00
2017-12-25T04:50:26.183Z,1.17
2017-12-25T04:52:53.651Z,1.23
2017-12-25T04:55:21.121Z,1.30
2017-12-25T04:57:48.682Z,2.37
2017-12-25T05:00:16.178Z,1.30
2017-12-25T05:02:43.639Z,2.27
2017-12-25T05:05:11.090Z,1.23
2017-12-25T05:07:38.588Z,1.40
2017-12-25T05:10:06.049Z,1.47
2017-12-25T05:12:33.625Z,1.67
2017-12-25T05:15:01.084Z,1.43
2017-12-25T05:17:28.561Z,1.17
2017-12-25T05:19:56.026Z,1.97
2017-12-25T05:22:23.492Z,1.10
2017-12-25T05:24:50.940Z,1.60
2017-12-25T05:27:18.412Z,3.03
2017-12-25T05:29:45.876Z,1.13
2017-12-25T05:32:13.318Z,1.33
2017-12-25T05:34:40.857Z,1.30
2017-12-25T05:37:08.279Z,1.90
2017-12-25T05:39:35.733Z,1.90
2017-12-25T05:42:03.204Z,1.90
2017-12-25T05:44:30.683Z,3.17
2017-12-25T05:46:58.138Z,1.60
2017-12-25T05:49:25.582Z,1.63
2017-12-25T05:51:53.040Z,1.80
2017-12-25T05:54:20.504Z,1.47
2017-12-25T05:56:47.964Z,1.50
2017-12-25T05:59:15.462Z,1.50
2017-12-25T06:01:42.923Z,1.40
2017-12-25T06:04:10.368Z,2.23
2017-12-25T06:06:37.834Z,1.40
2017-12-25T06:09:05.313Z,1.60
2017-12-25T06:11:32.767Z,1.60
2017-12-25T06:14:00.290Z,1.70
2017-12-25T06:16:27.761Z,1.43
2017-12-25T06:18:55.217Z,1.43
2017-12-25T06:21:22.658Z,3.47
2017-12-25T06:23:50.135Z,2.03
2017-12-25T06:26:17.568Z,2.00
2017-12-25T06:28:45.030Z,1.80
2017-12-25T06:31:12.489Z,2.00
2017-12-25T06:33:39.932Z,3.00
2017-12-25T06:36:07.409Z,1.77
2017-12-25T06:38:34.861Z,3.87
2017-12-25T06:41:02.354Z,1.93
2017-12-25T06:43:29.802Z,2.03
2017-12-25T06:45:57.293Z,1.57
2017-12-25T06:48:24.756Z,1.57
2017-12-25T06:50:52.230Z,1.53
2017-12-25T06:53:19.669Z,1.67
2017-12-25T06:55:47.129Z,1.50
2017-12-25T06:58:14.751Z,1.50
2017-12-25T07:00:42.227Z,1.80
2017-12-25T07:03:09.705Z,1.50
2017-12-25T07:05:37.210Z,1.63
2017-12-25T07:08:04.671Z,1.80
2017-12-25T07:10:32.120Z,1.70
2017-12-25T07:12:59.597Z,1.50
2017-12-25T07:15:27.047Z,1.60
2017-12-25T07:17:55.394Z,1.60
2017-12-25T07:20:22.968Z,1.63
2017-12-25T07:22:50.450Z,1.70
2017-12-25T07:25:17.956Z,2.23
2017-12-25T07:27:45.397Z,1.40
2017-12-25T07:30:12.863Z,1.60
2017-12-25T07:32:40.307Z,2.37
2017-12-25T07:35:07.774Z,2.20
2017-12-25T07:37:35.240Z,1.43
2017-12-25T07:40:02.692Z,1.50
2017-12-25T07:42:30.145Z,1.43
2017-12-25T07:44:57.584Z,1.53
2017-12-25T07:47:25.040Z,1.77
2017-12-25T07:49:52.483Z,1.30
2017-12-25T07:52:19.969Z,1.83
2017-12-25T07:54:47.411Z,1.27
2017-12-25T07:57:14.884Z,1.10
2017-12-25T07:59:42.341Z,1.57
2017-12-25T08:02:09.812Z,1.63
2017-12-25T08:04:37.255Z,1.50
2017-12-25T08:07:04.704Z,1.43
2017-12-25T08:09:32.167Z,1.30
2017-12-25T08:11:59.626Z,1.30
2017-12-25T08:14:27.093Z,1.40
2017-12-25T08:16:54.536Z,3.43
2017-12-25T08:19:22.010Z,1.77
2017-12-25T08:21:49.453Z,1.40
2017-12-25T08:24:16.893Z,1.40
2017-12-25T08:26:44.365Z,1.47
2017-12-25T08:29:11.883Z,1.53
2017-12-25T08:31:39.342Z,2.00
2017-12-25T08:34:06.781Z,1.43
2017-12-25T08:36:34.238Z,2.00
2017-12-25T08:39:01.758Z,1.40
2017-12-25T08:41:29.244Z,1.53
2017-12-25T08:43:56.694Z,3.50
2017-12-25T08:46:24.145Z,2.33
2017-12-25T08:48:51.601Z,2.27
2017-12-25T08:51:19.111Z,2.20
2017-12-25T08:53:46.567Z,1.93
2017-12-25T08:56:14.014Z,2.77
2017-12-25T08:58:41.521Z,2.10
2017-12-25T09:01:08.974Z,1.67
2017-12-25T09:03:36.430Z,1.63
2017-12-25T09:06:04.161Z,2.20
2017-12-25T09:08:31.715Z,1.87
2017-12-25T09:10:59.158Z,2.63
2017-12-25T09:13:26.607Z,2.90
2017-12-25T09:15:54.056Z,2.33
2017-12-25T09:18:21.488Z,2.00
2017-12-25T09:20:48.950Z,2.07
2017-12-25T09:23:16.397Z,2.37
2017-12-25T09:25:43.906Z,2.27
2017-12-25T09:28:11.369Z,2.07
2017-12-25T09:30:38.819Z,2.20
2017-12-25T09:33:06.488Z,2.53
2017-12-25T09:35:33.989Z,3.40
2017-12-25T09:38:01.468Z,2.20
2017-12-25T09:40:28.955Z,2.73
2017-12-25T09:42:56.394Z,2.97
2017-12-25T09:45:24.139Z,2.33
2017-12-25T09:47:51.632Z,2.03
2017-12-25T09:50:19.072Z,2.33
2017-12-25T09:52:46.532Z,1.90
2017-12-25T09:55:13.973Z,2.77
2017-12-25T09:57:41.545Z,1.90
2017-12-25T10:00:09.006Z,5.37
2017-12-25T10:02:36.704Z,2.13
2017-12-25T10:05:04.904Z,2.63
2017-12-25T10:07:32.452Z,2.97
2017-12-25T10:09:59.897Z,2.03
2017-12-25T10:12:27.343Z,3.13
2017-12-25T10:14:54.828Z,1.83
2017-12-25T10:17:22.277Z,3.23
2017-12-25T10:19:49.796Z,2.13
2017-12-25T10:22:17.233Z,2.00
2017-12-25T10:24:44.923Z,2.00
2017-12-25T10:27:12.425Z,1.93
2017-12-25T10:29:39.888Z,2.20
2017-12-25T10:32:07.459Z,2.10
2017-12-25T10:34:35.235Z,2.50
2017-12-25T10:37:02.685Z,2.40
2017-12-25T10:39:30.443Z,2.33
2017-12-25T10:41:57.921Z,2.73
2017-12-25T10:44:25.369Z,3.17
2017-12-25T10:46:52.852Z,3.13
2017-12-25T10:49:20.301Z,3.27
2017-12-25T10:51:47.764Z,3.60
2017-12-25T10:54:15.214Z,2.60
2017-12-25T10:56:42.685Z,3.03
2017-12-25T10:59:10.132Z,3.03
2017-12-25T11:01:37.606Z,2.50
2017-12-25T11:04:05.092Z,2.40
2017-12-25T11:06:32.544Z,2.40
2017-12-25T11:09:00.008Z,1.90
2017-12-25T11:11:27.461Z,2.60
2017-12-25T11:13:54.919Z,1.60
2017-12-25T11:16:22.364Z,3.83
2017-12-25T11:18:49.840Z,2.47
2017-12-25T11:21:17.341Z,2.50
2017-12-25T11:23:44.863Z,2.17
2017-12-25T11:26:12.433Z,1.70
2017-12-25T11:28:39.889Z,2.23
2017-12-25T11:31:07.340Z,2.47
2017-12-25T11:33:34.864Z,1.90
2017-12-25T11:36:02.315Z,1.87
2017-12-25T11:38:29.789Z,1.50
2017-12-25T11:40:57.393Z,2.00
2017-12-25T11:43:24.841Z,1.57
2017-12-25T11:45:52.401Z,1.63
2017-12-25T11:48:19.889Z,2.07
2017-12-25T11:50:47.366Z,1.60
2017-12-25T11:53:14.829Z,2.23
2017-12-25T11:55:42.274Z,1.43
2017-12-25T11:58:09.756Z,1.67
2017-12-25T12:00:37.200Z,1.40
2017-12-25T12:03:04.670Z,1.60
2017-12-25T12:05:32.134Z,1.97
2017-12-25T12:07:59.631Z,3.20
2017-12-25T12:10:27.092Z,1.47
2017-12-25T12:12:54.563Z,2.50
2017-12-25T12:15:22.000Z,2.17
2017-12-25T12:17:49.501Z,2.20
2017-12-25T12:20:19.125Z,2.00
2017-12-25T12:22:46.608Z,3.57
2017-12-25T12:25:14.085Z,1.93
2017-12-25T12:27:41.548Z,1.77
2017-12-25T12:30:09.002Z,1.70
2017-12-25T12:32:36.492Z,1.57
2017-12-25T12:35:04.756Z,1.80
2017-12-25T12:37:32.250Z,1.97
2017-12-25T12:39:59.744Z,1.47
2017-12-25T12:42:27.188Z,1.87
2017-12-25T12:44:54.646Z,1.53
2017-12-25T12:47:22.105Z,2.07
2017-12-25T12:49:49.543Z,1.20
2017-12-25T12:52:17.007Z,1.47
2017-12-25T12:54:44.547Z,1.57
2017-12-25T12:57:12.017Z,1.30
2017-12-25T12:59:39.465Z,1.40
2017-12-25T13:02:06.957Z,1.80
2017-12-25T13:04:34.417Z,1.50
2017-12-25T13:07:01.863Z,1.67
2017-12-25T13:09:29.323Z,1.53
2017-12-25T13:11:56.786Z,1.70
2017-12-25T13:14:24.372Z,1.47
2017-12-25T13:16:51.844Z,3.23
2017-12-25T13:19:19.307Z,1.60
2017-12-25T13:21:46.762Z,1.50
2017-12-25T13:24:14.256Z,2.37
2017-12-25T13:26:41.712Z,1.53
2017-12-25T13:29:09.169Z,1.60
2017-12-25T13:31:36.733Z,1.97
2017-12-25T13:34:05.018Z,1.90
2017-12-25T13:36:32.483Z,1.77
2017-12-25T13:38:59.953Z,1.70
2017-12-25T13:41:27.423Z,1.60
2017-12-25T13:43:54.895Z,1.70
2017-12-25T13:46:22.351Z,1.43
2017-12-25T13:48:49.801Z,2.00
2017-12-25T13:51:17.357Z,2.80
2017-12-25T13:53:44.815Z,2.33
2017-12-25T13:56:12.277Z,2.10
2017-12-25T13:58:39.779Z,2.00
2017-12-25T14:01:07.247Z,1.83
2017-12-25T14:03:34.713Z,1.80
2017-12-25T14:06:02.170Z,1.83
2017-12-25T14:08:29.639Z,2.03
2017-12-25T14:10:57.099Z,1.77
2017-12-25T14:13:24.801Z,2.40
2017-12-25T14:15:52.252Z,1.67
2017-12-25T14:18:19.695Z,1.83
2017-12-25T14:20:47.158Z,1.93
2017-12-25T14:23:14.616Z,1.80
2017-12-25T14:25:42.084Z,1.80
2017-12-25T14:28:09.572Z,2.40
2017-12-25T14:30:37.053Z,2.13
2017-12-25T14:33:04.497Z,1.70
2017-12-25T14:35:32.049Z,2.20
2017-12-25T14:37:59.499Z,4.53
2017-12-25T14:40:27.016Z,2.00
2017-12-25T14:42:54.446Z,1.70
2017-12-25T14:45:21.960Z,2.30
2017-12-25T14:47:49.450Z,2.00
2017-12-25T14:50:16.986Z,2.30
2017-12-25T14:52:44.545Z,1.80
2017-12-25T14:55:12.014Z,1.73
2017-12-25T14:57:39.483Z,2.03
2017-12-25T15:00:06.956Z,1.80
2017-12-25T15:02:34.431Z,2.03
2017-12-25T15:05:01.960Z,1.73
2017-12-25T15:07:29.523Z,2.30
2017-12-25T15:09:56.980Z,2.87
2017-12-25T15:12:24.448Z,4.30
2017-12-25T15:14:51.946Z,2.30
2017-12-25T15:17:19.392Z,2.80
2017-12-25T15:19:46.845Z,2.47
2017-12-25T15:22:14.354Z,3.10
2017-12-25T15:24:41.872Z,4.00
2017-12-25T15:27:09.320Z,2.73
2017-12-25T15:29:36.861Z,2.67
2017-12-25T15:32:04.303Z,2.77
2017-12-25T15:34:31.807Z,2.63
2017-12-25T15:36:59.277Z,2.67
2017-12-25T15:39:26.727Z,7.37
2017-12-25T15:41:54.179Z,3.70
2017-12-25T15:44:21.707Z,3.30
2017-12-25T15:46:49.171Z,3.57
2017-12-25T15:49:16.634Z,3.00
2017-12-25T15:51:44.216Z,4.90
2017-12-25T15:54:11.725Z,5.77
2017-12-25T15:56:39.175Z,4.10
2017-12-25T15:59:06.639Z,4.27
2017-12-25T16:01:34.078Z,7.67
2017-12-25T16:04:01.592Z,7.90
2017-12-25T16:06:29.032Z,4.27
2017-12-25T16:08:56.486Z,4.13
2017-12-25T16:11:23.971Z,5.47
2017-12-25T16:13:51.422Z,3.83
2017-12-25T16:16:18.912Z,7.63
2017-12-25T16:18:46.693Z,5.07
2017-12-25T16:21:14.156Z,4.73
2017-12-25T16:23:41.618Z,5.27
2017-12-25T16:26:09.109Z,5.90
2017-12-25T16:28:36.575Z,6.40
2017-12-25T16:31:04.063Z,5.17
2017-12-25T16:33:31.517Z,4.47
2017-12-25T16:35:59.102Z,5.80
2017-12-25T16:38:26.602Z,6.53
2017-12-25T16:40:54.154Z,5.37
2017-12-25T16:43:21.619Z,8.20
2017-12-25T16:45:49.078Z,8.13
2017-12-25T16:48:16.546Z,9.60
2017-12-25T16:50:44.032Z,9.40
2017-12-25T16:53:11.477Z,7.27
2017-12-25T16:55:38.952Z,17.67
2017-12-25T16:58:06.432Z,6.33
2017-12-25T17:00:33.875Z,5.10
2017-12-25T17:03:01.402Z,7.87
2017-12-25T17:05:28.936Z,6.30
2017-12-25T17:07:56.410Z,6.87
2017-12-25T17:10:23.917Z,9.53
2017-12-25T17:12:51.376Z,13.20
2017-12-25T17:15:18.884Z,12.73
2017-12-25T17:17:46.391Z,13.83
2017-12-25T17:20:13.868Z,13.67
2017-12-25T17:22:41.359Z,10.77
2017-12-25T17:25:08.950Z,11.77
2017-12-25T17:27:36.522Z,9.43
2017-12-25T17:30:04.013Z,11.50
2017-12-25T17:32:31.472Z,11.37
2017-12-25T17:34:59.100Z,11.77
2017-12-25T17:37:26.620Z,10.73
2017-12-25T17:39:54.086Z,12.60
2017-12-25T17:42:21.559Z,12.50
2017-12-25T17:44:49.038Z,14.77
2017-12-25T17:47:16.509Z,14.83
2017-12-25T17:49:43.989Z,13.37
2017-12-25T17:52:11.524Z,16.80
2017-12-25T17:54:38.998Z,12.17
2017-12-25T17:57:06.637Z,12.87
2017-12-25T17:59:34.105Z,14.43
2017-12-25T18:02:01.561Z,15.40
2017-12-25T18:04:29.066Z,15.37
2017-12-25T18:06:56.569Z,15.33
2017-12-25T18:09:24.014Z,14.50
2017-12-25T18:11:51.481Z,13.07
2017-12-25T18:14:18.933Z,15.60
2017-12-25T18:16:46.412Z,14.97
2017-12-25T18:19:13.911Z,16.13
2017-12-25T18:21:41.361Z,15.03
2017-12-25T18:24:08.826Z,16.93
2017-12-25T18:26:36.340Z,17.83
2017-12-25T18:29:03.793Z,17.07
2017-12-25T18:31:31.242Z,15.13
2017-12-25T18:33:58.773Z,17.40
2017-12-25T18:36:26.332Z,16.77
2017-12-25T18:38:53.793Z,18.73
2017-12-25T18:41:21.266Z,20.80
2017-12-25T18:43:48.795Z,19.37
2017-12-25T18:46:16.316Z,16.67
2017-12-25T18:48:43.776Z,19.20
2017-12-25T18:51:11.240Z,19.23
2017-12-25T18:53:38.722Z,16.93
2017-12-25T18:56:06.232Z,20.70
2017-12-25T18:58:33.726Z,20.60
2017-12-25T19:01:01.182Z,22.23
2017-12-25T19:03:28.657Z,19.73
2017-12-25T19:05:56.131Z,19.43
2017-12-25T19:08:23.597Z,19.60
2017-12-25T19:10:51.128Z,18.73
2017-12-25T19:13:18.590Z,19.10
2017-12-25T19:15:46.047Z,22.23
2017-12-25T19:18:16.207Z,17.37
2017-12-25T19:20:45.167Z,18.70
2017-12-25T19:23:12.646Z,21.77
2017-12-25T19:25:40.165Z,22.97
2017-12-25T19:28:07.729Z,18.20
2017-12-25T19:30:35.329Z,17.07
2017-12-25T19:33:02.852Z,17.63
2017-12-25T19:35:30.356Z,16.30
2017-12-25T19:37:57.860Z,16.57
2017-12-25T19:40:25.308Z,15.10
2017-12-25T19:42:52.756Z,14.63
2017-12-25T19:45:20.358Z,19.10
2017-12-25T19:47:47.807Z,15.67
2017-12-25T19:50:15.296Z,16.43
2017-12-25T19:52:43.088Z,16.63
2017-12-25T19:55:10.619Z,21.87
2017-12-25T19:57:38.081Z,16.10
2017-12-25T20:00:06.441Z,17.67
2017-12-25T20:02:33.953Z,20.20
2017-12-25T20:05:01.455Z,15.47
2017-12-25T20:07:28.972Z,18.03
2017-12-25T20:09:56.461Z,18.47
2017-12-25T20:12:23.954Z,20.63
2017-12-25T20:14:51.402Z,24.83
2017-12-25T20:17:18.946Z,20.83
2017-12-25T20:19:46.442Z,20.60
2017-12-25T20:22:13.896Z,20.70
2017-12-25T20:24:41.873Z,21.27
2017-12-25T20:27:09.417Z,23.20
2017-12-25T20:29:36.937Z,19.43
2017-12-25T20:32:04.390Z,22.13
2017-12-25T20:34:31.955Z,23.77
2017-12-25T20:36:59.713Z,21.93
2017-12-25T20:39:27.298Z,20.10
2017-12-25T20:41:54.992Z,20.77
2017-12-25T20:44:22.557Z,21.33
2017-12-25T20:46:50.127Z,19.60
2017-12-25T20:49:17.631Z,21.43
2017-12-25T20:51:45.479Z,22.57
2017-12-25T20:54:13.004Z,22.00
2017-12-25T20:56:40.513Z,19.77
2017-12-25T20:59:08.043Z,21.30
2017-12-25T21:01:35.501Z,20.97
2017-12-25T21:04:03.006Z,20.33
2017-12-25T21:06:30.481Z,21.63
2017-12-25T21:08:57.992Z,19.03
2017-12-25T21:11:25.529Z,18.77
2017-12-25T21:13:52.987Z,19.20
2017-12-25T21:16:20.500Z,21.43
2017-12-25T21:18:48.422Z,21.73
2017-12-25T21:21:16.060Z,22.47
2017-12-25T21:23:43.627Z,24.10
2017-12-25T21:26:11.159Z,20.57
2017-12-25T21:28:38.651Z,22.60
2017-12-25T21:31:06.169Z,22.27
2017-12-25T21:33:33.682Z,21.67
2017-12-25T21:36:01.207Z,22.17
2017-12-25T21:38:28.732Z,23.80
2017-12-25T21:40:56.245Z,26.20
2017-12-25T21:43:23.851Z,21.50
2017-12-25T21:45:51.495Z,21.77
2017-12-25T21:48:19.000Z,23.83
2017-12-25T21:50:46.508Z,21.07
2017-12-25T21:53:14.019Z,21.40
2017-12-25T21:55:41.547Z,24.53
2017-12-25T21:58:09.083Z,21.50
2017-12-25T22:00:36.593Z,24.43
2017-12-25T22:03:04.112Z,21.13
2017-12-25T22:05:31.662Z,20.93
2017-12-25T22:07:59.168Z,20.50
2017-12-25T22:10:26.615Z,20.73
2017-12-25T22:12:54.140Z,23.17
2017-12-25T22:15:21.660Z,21.23
2017-12-25T22:17:49.175Z,19.23
2017-12-25T22:20:16.674Z,21.50
2017-12-25T22:22:44.290Z,21.13
2017-12-25T22:25:11.811Z,22.60
2017-12-25T22:27:39.339Z,19.43
2017-12-25T22:30:06.858Z,22.27
2017-12-25T22:32:34.464Z,19.53
2017-12-25T22:35:01.998Z,21.77
2017-12-25T22:37:29.534Z,22.73
2017-12-25T22:39:57.081Z,20.07
2017-12-25T22:42:24.584Z,19.70
2017-12-25T22:44:52.032Z,22.17
2017-12-25T22:47:19.496Z,22.47
2017-12-25T22:49:46.994Z,20.40
2017-12-25T22:52:14.555Z,21.87
2017-12-25T22:54:42.906Z,20.27
2017-12-25T22:57:10.445Z,17.87
2017-12-25T22:59:38.180Z,24.53
2017-12-25T23:02:05.687Z,19.37
2017-12-25T23:04:33.194Z,18.97
2017-12-25T23:07:00.673Z,19.43
2017-12-25T23:09:28.149Z,24.23
2017-12-25T23:11:55.630Z,18.50
2017-12-25T23:14:23.138Z,21.23
2017-12-25T23:16:50.587Z,19.23
2017-12-25T23:19:18.095Z,19.33
2017-12-25T23:21:45.640Z,20.83
2017-12-25T23:24:13.190Z,20.27
2017-12-25T23:26:40.700Z,20.70
2017-12-25T23:29:08.216Z,20.43
2017-12-25T23:31:35.717Z,20.57
2017-12-25T23:34:03.332Z,18.33
2017-12-25T23:36:30.838Z,23.07
2017-12-25T23:38:58.424Z,17.57
2017-12-25T23:41:25.929Z,16.73
2017-12-25T23:43:53.410Z,20.13
2017-12-25T23:46:20.940Z,17.50
2017-12-25T23:48:48.447Z,20.27
2017-12-25T23:51:15.957Z,15.33
2017-12-25T23:53:43.500Z,17.23
2017-12-25T23:56:10.995Z,14.87
2017-12-25T23:58:38.507Z,16.53
